createdAt,value
2017-09-28T00:00:42.064Z,70.86
2017-09-28T00:01:42.034Z,71.15
2017-09-28T00:02:42.055Z,70.29
2017-09-28T00:03:42.080Z,70.48
2017-09-28T00:04:42.426Z,70.96
2017-09-28T00:05:42.131Z,70.76
2017-09-28T00:06:42.149Z,70.67
2017-09-28T00:07:42.174Z,70
2017-09-28T00:08:42.198Z,69.9
2017-09-28T00:09:42.222Z,70.29
2017-09-28T00:10:42.238Z,70.48
2017-09-28T00:11:42.576Z,70.38
2017-09-28T00:12:48.548Z,70.09
2017-09-28T00:13:42.309Z,70.48
2017-09-28T00:14:42.328Z,71.15
2017-09-28T00:15:42.407Z,71.59
2017-09-28T00:16:42.371Z,71.98
2017-09-28T00:17:42.398Z,71.98
2017-09-28T00:18:42.418Z,71.88
2017-09-28T00:19:42.443Z,72.27
2017-09-28T00:20:42.461Z,72.64
2017-09-28T00:21:42.484Z,72.64
2017-09-28T00:22:42.512Z,71.98
2017-09-28T00:23:42.530Z,72.27
2017-09-28T00:24:42.551Z,72.45
2017-09-28T00:25:42.574Z,72.07
2017-09-28T00:26:42.598Z,71.88
2017-09-28T00:27:42.621Z,72.17
2017-09-28T00:28:42.640Z,72.17
2017-09-28T00:29:42.682Z,72.07
2017-09-28T00:30:42.685Z,71.88
2017-09-28T00:31:42.717Z,72.55
2017-09-28T00:32:42.735Z,72.64
2017-09-28T00:33:42.753Z,72.55
2017-09-28T00:34:42.781Z,72.64
2017-09-28T00:35:42.798Z,72.64
2017-09-28T00:36:42.827Z,72.74
2017-09-28T00:37:42.846Z,73.03
2017-09-28T00:38:42.865Z,73.22
2017-09-28T00:39:42.895Z,72.74
2017-09-28T00:40:42.912Z,72.84
2017-09-28T00:41:42.932Z,72.07
2017-09-28T00:42:42.957Z,72.07
2017-09-28T00:43:42.977Z,72.07
2017-09-28T00:44:43.003Z,71.98
2017-09-28T00:45:43.023Z,72.07
2017-09-28T00:46:43.076Z,72.27
2017-09-28T00:47:43.067Z,72.17
2017-09-28T00:48:43.098Z,72.36
2017-09-28T00:49:43.109Z,72.64
2017-09-28T00:50:43.130Z,72.74
2017-09-28T00:51:43.155Z,72.45
2017-09-28T00:52:43.181Z,71.98
2017-09-28T00:53:43.217Z,72.74
2017-09-28T00:54:43.222Z,72.74
2017-09-28T00:55:43.244Z,72.27
2017-09-28T00:56:43.262Z,72.36
2017-09-28T00:57:43.287Z,71.88
2017-09-28T00:58:43.309Z,71.4
2017-09-28T00:59:43.647Z,71.02
2017-09-28T01:00:43.352Z,71.31
2017-09-28T01:01:43.384Z,70.83
2017-09-28T01:02:43.398Z,70.92
2017-09-28T01:03:43.426Z,71.5
2017-09-28T01:04:43.439Z,71.4
2017-09-28T01:05:43.466Z,71.31
2017-09-28T01:06:43.486Z,71.4
2017-09-28T01:07:43.506Z,72.45
2017-09-28T01:08:43.529Z,71.88
2017-09-28T01:09:43.554Z,71.88
2017-09-28T01:10:43.583Z,71.98
2017-09-28T01:11:43.597Z,72.17
2017-09-28T01:12:43.622Z,71.98
2017-09-28T01:13:43.641Z,71.59
2017-09-28T01:14:43.979Z,71.5
2017-09-28T01:15:43.686Z,71.31
2017-09-28T01:16:43.724Z,70.92
2017-09-28T01:17:43.727Z,71.59
2017-09-28T01:18:43.750Z,70.73
2017-09-28T01:19:43.772Z,70.73
2017-09-28T01:20:43.798Z,71.11
2017-09-28T01:21:43.820Z,70.92
2017-09-28T01:22:43.838Z,70.92
2017-09-28T01:23:43.865Z,71.11
2017-09-28T01:24:43.885Z,71.21
2017-09-28T01:25:43.905Z,70.73
2017-09-28T01:26:43.930Z,70.98
2017-09-28T01:27:43.949Z,70.7
2017-09-28T01:28:43.974Z,70.98
2017-09-28T01:29:43.993Z,71.17
2017-09-28T01:30:44.017Z,71.46
2017-09-28T01:31:44.040Z,71.84
2017-09-28T01:32:44.602Z,71.75
2017-09-28T01:33:44.082Z,71.37
2017-09-28T01:34:44.165Z,71.37
2017-09-28T01:35:44.127Z,71.31
2017-09-28T01:36:44.145Z,71.27
2017-09-28T01:37:44.167Z,71.56
2017-09-28T01:38:44.199Z,70.83
2017-09-28T01:39:44.224Z,70.5
2017-09-28T01:40:44.238Z,70.7
2017-09-28T01:41:44.257Z,70.6
2017-09-28T01:42:44.280Z,70.89
2017-09-28T01:43:44.297Z,71.37
2017-09-28T01:44:44.319Z,71.75
2017-09-28T01:45:44.341Z,72.23
2017-09-28T01:46:44.367Z,72.13
2017-09-28T01:47:44.387Z,72.03
2017-09-28T01:48:44.408Z,72.32
2017-09-28T01:49:44.433Z,72.71
2017-09-28T01:50:44.450Z,71.94
2017-09-28T01:51:44.472Z,72.8
2017-09-28T01:52:44.493Z,72.23
2017-09-28T01:53:44.518Z,72
2017-09-28T01:54:44.541Z,71.91
2017-09-28T01:55:44.561Z,72.23
2017-09-28T01:56:44.587Z,72
2017-09-28T01:57:44.606Z,72.03
2017-09-28T01:58:44.630Z,71.94
2017-09-28T01:59:44.645Z,71.84
2017-09-28T02:00:44.670Z,71.84
2017-09-28T02:01:44.692Z,71.56
2017-09-28T02:02:44.724Z,72.32
2017-09-28T02:03:44.763Z,71.84
2017-09-28T02:04:44.760Z,72.61
2017-09-28T02:05:44.778Z,71.94
2017-09-28T02:06:44.862Z,71.94
2017-09-28T02:07:44.821Z,72.13
2017-09-28T02:08:44.846Z,71.91
2017-09-28T02:09:44.901Z,71.81
2017-09-28T02:10:45.202Z,72.19
2017-09-28T02:11:44.910Z,72.67
2017-09-28T02:12:45.248Z,72.48
2017-09-28T02:13:44.952Z,72.09
2017-09-28T02:14:45.286Z,72
2017-09-28T02:15:45.006Z,71.91
2017-09-28T02:16:45.016Z,71.91
2017-09-28T02:17:45.033Z,72.48
2017-09-28T02:18:45.059Z,72.38
2017-09-28T02:19:45.086Z,72.58
2017-09-28T02:20:45.105Z,72.71
2017-09-28T02:21:45.120Z,71.94
2017-09-28T02:22:45.139Z,71.94
2017-09-28T02:23:45.160Z,72.19
2017-09-28T02:24:45.189Z,72.38
2017-09-28T02:25:45.229Z,71.71
2017-09-28T02:26:45.230Z,71.91
2017-09-28T02:27:45.250Z,72.09
2017-09-28T02:28:45.273Z,72
2017-09-28T02:29:45.295Z,71.62
2017-09-28T02:30:45.313Z,71.52
2017-09-28T02:31:45.338Z,71.52
2017-09-28T02:32:45.674Z,71.42
2017-09-28T02:33:45.377Z,71.62
2017-09-28T02:34:45.400Z,71.91
2017-09-28T02:35:45.429Z,72.29
2017-09-28T02:36:45.443Z,72
2017-09-28T02:37:45.464Z,71.91
2017-09-28T02:38:45.486Z,72.29
2017-09-28T02:39:45.508Z,72.09
2017-09-28T02:40:45.533Z,71.52
2017-09-28T02:41:45.551Z,71.42
2017-09-28T02:42:45.580Z,71.23
2017-09-28T02:43:45.598Z,71.62
2017-09-28T02:44:45.620Z,70.85
2017-09-28T02:45:45.639Z,71.08
2017-09-28T02:46:45.658Z,70.85
2017-09-28T02:47:45.688Z,70.95
2017-09-28T02:48:45.704Z,71.14
2017-09-28T02:49:45.732Z,70.56
2017-09-28T02:50:46.057Z,71.33
2017-09-28T02:51:45.769Z,71.52
2017-09-28T02:52:45.790Z,71.52
2017-09-28T02:53:45.807Z,71.42
2017-09-28T02:54:45.839Z,71.52
2017-09-28T02:55:45.850Z,71.42
2017-09-28T02:56:45.924Z,71.81
2017-09-28T02:57:45.893Z,71.23
2017-09-28T02:58:45.919Z,71.33
2017-09-28T02:59:45.944Z,71.42
2017-09-28T03:00:45.959Z,71.33
2017-09-28T03:01:45.980Z,70.47
2017-09-28T03:02:46.000Z,71.42
2017-09-28T03:03:46.023Z,70.95
2017-09-28T03:04:46.044Z,70.85
2017-09-28T03:05:46.065Z,70.56
2017-09-28T03:06:46.401Z,70.76
2017-09-28T03:07:46.109Z,70.28
2017-09-28T03:08:46.134Z,69.8
2017-09-28T03:09:46.158Z,70.37
2017-09-28T03:10:46.193Z,70.66
2017-09-28T03:11:46.195Z,70.85
2017-09-28T03:12:46.219Z,70.85
2017-09-28T03:13:46.241Z,70.18
2017-09-28T03:14:46.261Z,70.28
2017-09-28T03:15:46.280Z,69.8
2017-09-28T03:16:46.303Z,69.89
2017-09-28T03:17:46.324Z,69.7
2017-09-28T03:18:46.349Z,70.37
2017-09-28T03:19:46.368Z,70.37
2017-09-28T03:20:46.388Z,70.53
2017-09-28T03:21:46.413Z,70.05
2017-09-28T03:22:46.442Z,70.81
2017-09-28T03:23:46.457Z,70.72
2017-09-28T03:24:46.476Z,70.62
2017-09-28T03:25:46.497Z,70.62
2017-09-28T03:26:46.522Z,70.53
2017-09-28T03:27:46.539Z,71.39
2017-09-28T03:28:46.562Z,71.39
2017-09-28T03:29:46.581Z,71.97
2017-09-28T03:30:46.608Z,72.16
2017-09-28T03:31:46.626Z,72.06
2017-09-28T03:32:46.667Z,72.16
2017-09-28T03:33:46.676Z,72.44
2017-09-28T03:34:46.689Z,72.34
2017-09-28T03:35:46.713Z,72.54
2017-09-28T03:36:47.043Z,72.73
2017-09-28T03:37:46.751Z,72.73
2017-09-28T03:38:47.086Z,72.54
2017-09-28T03:39:46.797Z,72.54
2017-09-28T03:40:46.817Z,73.21
2017-09-28T03:41:46.836Z,72.44
2017-09-28T03:42:46.859Z,73.02
2017-09-28T03:43:46.881Z,72.73
2017-09-28T03:44:46.900Z,72.73
2017-09-28T03:45:46.924Z,72.06
2017-09-28T03:46:46.948Z,72.06
2017-09-28T03:47:46.967Z,71.87
2017-09-28T03:48:46.989Z,72.06
2017-09-28T03:49:47.017Z,72.16
2017-09-28T03:50:47.028Z,71.87
2017-09-28T03:51:47.050Z,72.25
2017-09-28T03:52:47.074Z,71.97
2017-09-28T03:53:47.092Z,72.25
2017-09-28T03:54:47.431Z,72.16
2017-09-28T03:55:47.141Z,72.22
2017-09-28T03:56:47.157Z,72.16
2017-09-28T03:57:47.180Z,72.16
2017-09-28T03:58:47.203Z,72.06
2017-09-28T03:59:47.223Z,71.87
2017-09-28T04:00:47.245Z,72.44
2017-09-28T04:01:47.259Z,71.87
2017-09-28T04:02:47.281Z,71.87
2017-09-28T04:03:47.311Z,71.87
2017-09-28T04:04:47.327Z,71.97
2017-09-28T04:05:47.344Z,72.12
2017-09-28T04:06:47.363Z,71.93
2017-09-28T04:07:47.391Z,71.93
2017-09-28T04:08:47.406Z,71.73
2017-09-28T04:09:47.431Z,72.02
2017-09-28T04:10:47.450Z,71.93
2017-09-28T04:11:47.485Z,71.93
2017-09-28T04:12:47.493Z,72.12
2017-09-28T04:13:47.513Z,71.73
2017-09-28T04:14:47.535Z,72.02
2017-09-28T04:15:47.562Z,71.93
2017-09-28T04:16:47.575Z,71.93
2017-09-28T04:17:47.594Z,71.83
2017-09-28T04:18:47.620Z,72.6
2017-09-28T04:19:47.637Z,72.69
2017-09-28T04:20:47.709Z,72.12
2017-09-28T04:21:47.680Z,71.93
2017-09-28T04:22:47.706Z,71.83
2017-09-28T04:23:47.722Z,72.41
2017-09-28T04:24:47.742Z,72.69
2017-09-28T04:25:47.793Z,71.83
2017-09-28T04:26:47.786Z,72.12
2017-09-28T04:27:47.810Z,72.69
2017-09-28T04:28:47.831Z,72.69
2017-09-28T04:29:47.860Z,72.88
2017-09-28T04:30:47.874Z,72.69
2017-09-28T04:31:47.890Z,72.6
2017-09-28T04:32:47.909Z,72.41
2017-09-28T04:33:47.931Z,72.41
2017-09-28T04:34:47.954Z,72.41
2017-09-28T04:35:47.973Z,72.6
2017-09-28T04:36:47.994Z,72.6
2017-09-28T04:37:48.028Z,72.5
2017-09-28T04:38:48.037Z,72.6
2017-09-28T04:39:48.060Z,72.5
2017-09-28T04:40:48.080Z,73.08
2017-09-28T04:41:48.105Z,71.93
2017-09-28T04:42:48.121Z,72.41
2017-09-28T04:43:48.143Z,71.83
2017-09-28T04:44:48.164Z,71.93
2017-09-28T04:45:48.187Z,71.64
2017-09-28T04:46:48.205Z,71.16
2017-09-28T04:47:48.225Z,71.55
2017-09-28T04:48:48.263Z,70.5
2017-09-28T04:49:48.271Z,71.64
2017-09-28T04:50:48.307Z,71.73
2017-09-28T04:51:48.309Z,71.55
2017-09-28T04:52:48.335Z,71.36
2017-09-28T04:53:48.355Z,71.26
2017-09-28T04:54:48.430Z,70.78
2017-09-28T04:55:48.396Z,70.78
2017-09-28T04:56:48.425Z,70.87
2017-09-28T04:57:48.442Z,70.87
2017-09-28T04:58:48.463Z,71.16
2017-09-28T04:59:48.484Z,71.55
2017-09-28T05:00:48.503Z,71.26
2017-09-28T05:01:48.525Z,71.64
2017-09-28T05:02:48.558Z,71.64
2017-09-28T05:03:48.568Z,71.45
2017-09-28T05:04:48.900Z,72.41
2017-09-28T05:05:48.609Z,72.12
2017-09-28T05:06:48.629Z,72.02
2017-09-28T05:07:48.961Z,71.73
2017-09-28T05:08:48.669Z,71.73
2017-09-28T05:09:48.690Z,72.12
2017-09-28T05:10:48.713Z,71.39
2017-09-28T05:11:48.735Z,71.48
2017-09-28T05:12:48.773Z,71.73
2017-09-28T05:13:48.783Z,70.81
2017-09-28T05:14:48.800Z,70.68
2017-09-28T05:15:48.825Z,70.59
2017-09-28T05:16:48.841Z,71.45
2017-09-28T05:17:48.865Z,71.64
2017-09-28T05:18:48.882Z,70.59
2017-09-28T05:19:48.903Z,70.53
2017-09-28T05:20:48.929Z,70.72
2017-09-28T05:21:48.944Z,70.53
2017-09-28T05:22:48.966Z,70.81
2017-09-28T05:23:48.987Z,70.91
2017-09-28T05:24:49.008Z,70.15
2017-09-28T05:25:49.029Z,70.81
2017-09-28T05:26:49.052Z,70.72
2017-09-28T05:27:49.079Z,69.86
2017-09-28T05:28:49.145Z,69.95
2017-09-28T05:29:49.116Z,70.15
2017-09-28T05:30:49.137Z,70.81
2017-09-28T05:31:49.161Z,70.53
2017-09-28T05:32:49.179Z,70.53
2017-09-28T05:33:49.201Z,70.24
2017-09-28T05:34:49.221Z,70.15
2017-09-28T05:35:49.243Z,70.05
2017-09-28T05:36:49.266Z,70.05
2017-09-28T05:37:49.295Z,69.95
2017-09-28T05:38:49.309Z,70.05
2017-09-28T05:39:49.333Z,70.09
2017-09-28T05:40:49.353Z,69.7
2017-09-28T05:41:49.371Z,69.6
2017-09-28T05:42:49.393Z,69.8
2017-09-28T05:43:49.455Z,69.6
2017-09-28T05:44:49.434Z,69.89
2017-09-28T05:45:49.471Z,69.89
2017-09-28T05:46:49.478Z,69.51
2017-09-28T05:47:49.554Z,69.99
2017-09-28T05:48:49.523Z,69.7
2017-09-28T05:49:49.543Z,69.51
2017-09-28T05:50:49.569Z,69.89
2017-09-28T05:51:49.596Z,69.8
2017-09-28T05:52:49.608Z,69.89
2017-09-28T05:53:49.630Z,70.28
2017-09-28T05:54:49.655Z,70.66
2017-09-28T05:55:49.675Z,71.04
2017-09-28T05:56:49.697Z,70.85
2017-09-28T05:57:49.717Z,70.7
2017-09-28T05:58:49.742Z,70.12
2017-09-28T05:59:49.761Z,70.03
2017-09-28T06:00:49.787Z,69.93
2017-09-28T06:01:49.808Z,70.21
2017-09-28T06:02:49.929Z,69.17
2017-09-28T06:03:49.853Z,69.26
2017-09-28T06:04:49.874Z,69.26
2017-09-28T06:05:49.893Z,68.97
2017-09-28T06:06:49.918Z,69.1
2017-09-28T06:07:49.938Z,70.06
2017-09-28T06:08:49.960Z,70.31
2017-09-28T06:09:49.981Z,70.12
2017-09-28T06:10:50.011Z,70.31
2017-09-28T06:11:50.031Z,70.31
2017-09-28T06:12:50.049Z,70.31
2017-09-28T06:13:50.078Z,69.93
2017-09-28T06:14:50.100Z,69.64
2017-09-28T06:15:50.121Z,69.1
2017-09-28T06:16:50.142Z,68.91
2017-09-28T06:17:50.212Z,69.1
2017-09-28T06:18:50.189Z,69.01
2017-09-28T06:19:50.208Z,68.91
2017-09-28T06:20:50.235Z,69.2
2017-09-28T06:21:50.252Z,69.1
2017-09-28T06:22:50.460Z,68.33
2017-09-28T06:23:50.314Z,68.43
2017-09-28T06:24:50.656Z,67.89
2017-09-28T06:25:50.660Z,68.72
2017-09-28T06:26:50.688Z,68.52
2017-09-28T06:27:50.397Z,67.57
2017-09-28T06:28:50.730Z,67.99
2017-09-28T06:29:50.435Z,67.5
2017-09-28T06:30:50.764Z,67.79
2017-09-28T06:31:50.480Z,67.69
2017-09-28T06:32:50.503Z,67.79
2017-09-28T06:33:50.522Z,67.5
2017-09-28T06:34:50.550Z,67.32
2017-09-28T06:35:50.626Z,66.35
2017-09-28T06:36:50.593Z,66.55
2017-09-28T06:37:50.620Z,66.49
2017-09-28T06:38:50.642Z,66.35
2017-09-28T06:39:50.661Z,66.16
2017-09-28T06:40:50.689Z,66.16
2017-09-28T06:41:50.720Z,66.16
2017-09-28T06:42:50.736Z,66.26
2017-09-28T06:43:50.758Z,66.39
2017-09-28T06:44:50.780Z,66.49
2017-09-28T06:45:50.821Z,66
2017-09-28T06:46:50.842Z,66
2017-09-28T06:47:50.850Z,65.62
2017-09-28T06:48:50.867Z,65.72
2017-09-28T06:49:50.899Z,64.95
2017-09-28T06:50:50.971Z,65.23
2017-09-28T06:51:50.944Z,64.66
2017-09-28T06:52:50.962Z,64.12
2017-09-28T06:53:50.987Z,64.02
2017-09-28T06:54:51.013Z,63.73
2017-09-28T06:55:51.036Z,63.83
2017-09-28T06:56:51.056Z,63.67
2017-09-28T06:57:51.077Z,63.38
2017-09-28T06:58:51.106Z,62.9
2017-09-28T06:59:51.125Z,63.28
2017-09-28T07:00:51.148Z,62.39
2017-09-28T07:01:51.488Z,62.52
2017-09-28T07:02:51.196Z,62.32
2017-09-28T07:03:51.220Z,62.52
2017-09-28T07:04:51.243Z,61.94
2017-09-28T07:05:51.266Z,62.23
2017-09-28T07:06:51.288Z,62.42
2017-09-28T07:07:51.323Z,62.32
2017-09-28T07:08:51.338Z,62.13
2017-09-28T07:09:51.411Z,62.16
2017-09-28T07:10:51.385Z,61.78
2017-09-28T07:11:51.415Z,62.26
2017-09-28T07:12:51.442Z,61.87
2017-09-28T07:13:51.456Z,61.78
2017-09-28T07:14:51.480Z,61.3
2017-09-28T07:15:51.503Z,61.2
2017-09-28T07:16:51.544Z,60.75
2017-09-28T07:17:51.555Z,60.46
2017-09-28T07:18:51.575Z,59.89
2017-09-28T07:19:51.604Z,60.08
2017-09-28T07:20:51.623Z,59.5
2017-09-28T07:21:51.646Z,59.89
2017-09-28T07:22:51.669Z,60.85
2017-09-28T07:23:51.718Z,59.99
2017-09-28T07:24:51.725Z,60.21
2017-09-28T07:25:51.747Z,59.79
2017-09-28T07:26:51.986Z,59.69
2017-09-28T07:27:52.106Z,59.89
2017-09-28T07:28:51.867Z,60.56
2017-09-28T07:29:51.842Z,60.66
2017-09-28T07:30:51.866Z,59.79
2017-09-28T07:31:51.888Z,60.08
2017-09-28T07:32:51.912Z,59.79
2017-09-28T07:33:52.629Z,59.79
2017-09-28T07:34:52.297Z,59.89
2017-09-28T07:35:51.985Z,59.79
2017-09-28T07:36:52.012Z,59.82
2017-09-28T07:37:52.040Z,59.89
2017-09-28T07:38:52.062Z,59.92
2017-09-28T07:39:52.090Z,59.99
2017-09-28T07:40:53.971Z,59.89
2017-09-28T07:41:52.131Z,59.89
2017-09-28T07:42:52.468Z,60.75
2017-09-28T07:43:52.179Z,60.46
2017-09-28T07:44:52.210Z,60.85
2017-09-28T07:45:52.230Z,61.14
2017-09-28T07:46:52.414Z,60.66
2017-09-28T07:47:52.280Z,60.94
2017-09-28T07:48:52.303Z,60.75
2017-09-28T07:49:52.323Z,62
2017-09-28T07:50:52.353Z,61.81
2017-09-28T07:51:52.374Z,61.97
2017-09-28T07:52:52.403Z,62.1
2017-09-28T07:53:52.423Z,62
2017-09-28T07:54:52.452Z,62.29
2017-09-28T07:55:52.487Z,62.58
2017-09-28T07:56:52.495Z,63.12
2017-09-28T07:57:52.517Z,62.64
2017-09-28T07:58:52.552Z,62
2017-09-28T07:59:52.566Z,62
2017-09-28T08:00:52.907Z,61.81
2017-09-28T08:01:52.620Z,61.91
2017-09-28T08:02:52.661Z,62.1
2017-09-28T08:03:52.670Z,61.23
2017-09-28T08:04:52.687Z,61.16
2017-09-28T08:05:52.715Z,60.78
2017-09-28T08:06:52.765Z,60.97
2017-09-28T08:07:53.072Z,60.88
2017-09-28T08:08:52.789Z,60.39
2017-09-28T08:09:52.815Z,60.21
2017-09-28T08:10:52.842Z,59.94
2017-09-28T08:11:52.860Z,59.82
2017-09-28T08:12:52.889Z,59.47
2017-09-28T08:13:52.910Z,58.6
2017-09-28T08:14:52.939Z,58.79
2017-09-28T08:15:52.963Z,58.31
2017-09-28T08:16:52.995Z,58.79
2017-09-28T08:17:53.016Z,58.82
2017-09-28T08:18:53.035Z,58.98
2017-09-28T08:19:53.212Z,59.94
2017-09-28T08:20:53.173Z,60.04
2017-09-28T08:21:53.119Z,60.72
2017-09-28T08:22:53.132Z,60.04
2017-09-28T08:23:53.161Z,60.49
2017-09-28T08:24:53.188Z,60.97
2017-09-28T08:25:53.211Z,61.16
2017-09-28T08:26:53.232Z,60.59
2017-09-28T08:27:53.770Z,60.59
2017-09-28T08:28:53.283Z,60.69
2017-09-28T08:29:53.308Z,59.85
2017-09-28T08:30:53.335Z,60.24
2017-09-28T08:31:53.362Z,59.56
2017-09-28T08:32:53.386Z,59.27
2017-09-28T08:33:53.410Z,59.37
2017-09-28T08:34:53.432Z,58.98
2017-09-28T08:35:53.455Z,58.7
2017-09-28T08:36:53.479Z,58.89
2017-09-28T08:37:53.560Z,58.89
2017-09-28T08:38:53.529Z,58.6
2017-09-28T08:39:53.608Z,58.79
2017-09-28T08:40:53.890Z,58.44
2017-09-28T08:41:53.615Z,57.86
2017-09-28T08:42:53.637Z,57.95
2017-09-28T08:43:53.654Z,57.67
2017-09-28T08:44:53.681Z,57.18
2017-09-28T08:45:53.706Z,57.18
2017-09-28T08:46:53.731Z,57.28
2017-09-28T08:47:53.757Z,56.8
2017-09-28T08:48:53.781Z,57.18
2017-09-28T08:49:53.818Z,56.05
2017-09-28T08:50:53.855Z,56.35
2017-09-28T08:51:53.863Z,55.96
2017-09-28T08:52:53.936Z,55.6
2017-09-28T08:53:53.913Z,54.93
2017-09-28T08:54:53.938Z,54.74
2017-09-28T08:55:53.962Z,54.83
2017-09-28T08:56:53.985Z,54.83
2017-09-28T08:57:54.033Z,54.28
2017-09-28T08:58:54.036Z,54.86
2017-09-28T08:59:54.059Z,55.02
2017-09-28T09:00:54.087Z,54.86
2017-09-28T09:01:54.148Z,54.28
2017-09-28T09:02:54.138Z,54.28
2017-09-28T09:03:54.166Z,54.47
2017-09-28T09:04:54.193Z,54.28
2017-09-28T09:05:54.225Z,53.61
2017-09-28T09:06:54.248Z,53.41
2017-09-28T09:07:54.318Z,53.8
2017-09-28T09:08:54.601Z,54.18
2017-09-28T09:09:54.317Z,53.99
2017-09-28T09:10:54.342Z,53.89
2017-09-28T09:11:54.371Z,54.93
2017-09-28T09:12:54.397Z,54.28
2017-09-28T09:13:54.422Z,54.28
2017-09-28T09:14:54.449Z,54.16
2017-09-28T09:15:54.474Z,53.89
2017-09-28T09:16:54.499Z,53.7
2017-09-28T09:17:54.523Z,53.99
2017-09-28T09:18:54.553Z,53.7
2017-09-28T09:19:54.573Z,53.15
2017-09-28T09:20:54.600Z,52.19
2017-09-28T09:21:54.631Z,51.92
2017-09-28T09:22:54.705Z,52.4
2017-09-28T09:23:54.680Z,52.21
2017-09-28T09:24:54.705Z,51.73
2017-09-28T09:25:54.732Z,51.82
2017-09-28T09:26:54.757Z,52.21
2017-09-28T09:27:54.784Z,51.05
2017-09-28T09:28:54.812Z,51.15
2017-09-28T09:29:54.836Z,51.25
2017-09-28T09:30:54.872Z,51.05
2017-09-28T09:31:54.895Z,50.98
2017-09-28T09:32:54.914Z,50.79
2017-09-28T09:33:54.943Z,50.79
2017-09-28T09:34:54.967Z,50.69
2017-09-28T09:35:54.994Z,50.31
2017-09-28T09:36:55.022Z,50.21
2017-09-28T09:37:55.050Z,50.21
2017-09-28T09:38:55.075Z,50.79
2017-09-28T09:39:55.154Z,50.5
2017-09-28T09:40:55.131Z,50.98
2017-09-28T09:41:55.157Z,50.79
2017-09-28T09:42:55.183Z,50.98
2017-09-28T09:43:55.211Z,49.82
2017-09-28T09:44:55.241Z,50.89
2017-09-28T09:45:55.262Z,50.79
2017-09-28T09:46:55.287Z,50.79
2017-09-28T09:47:55.318Z,50.01
2017-09-28T09:48:55.343Z,49.27
2017-09-28T09:49:55.369Z,49.85
2017-09-28T09:50:55.399Z,49.07
2017-09-28T09:51:55.430Z,49.27
2017-09-28T09:52:55.450Z,49.17
2017-09-28T09:53:55.480Z,48.39
2017-09-28T09:54:55.553Z,48.59
2017-09-28T09:55:55.531Z,48.49
2017-09-28T09:56:55.565Z,48.71
2017-09-28T09:57:55.588Z,47.65
2017-09-28T09:58:55.614Z,46.9
2017-09-28T09:59:55.641Z,46.03
2017-09-28T10:00:55.667Z,46.42
2017-09-28T10:01:55.706Z,46.58
2017-09-28T10:02:55.725Z,46.49
2017-09-28T10:03:55.752Z,46.22
2017-09-28T10:04:55.791Z,45.95
2017-09-28T10:05:55.808Z,45.57
2017-09-28T10:06:55.837Z,44.79
2017-09-28T10:07:55.866Z,44.7
2017-09-28T10:08:55.896Z,44.33
2017-09-28T10:09:55.924Z,43.55
2017-09-28T10:10:56.006Z,43.77
2017-09-28T10:11:55.983Z,44.23
2017-09-28T10:12:56.004Z,43.68
2017-09-28T10:13:56.032Z,43.87
2017-09-28T10:14:56.060Z,43.58
2017-09-28T10:15:56.090Z,43.96
2017-09-28T10:16:56.122Z,43.68
2017-09-28T10:17:56.154Z,43.48
2017-09-28T10:18:56.178Z,42.51
2017-09-28T10:19:56.208Z,42.54
2017-09-28T10:20:56.235Z,41.66
2017-09-28T10:21:56.261Z,41.68
2017-09-28T10:22:56.291Z,41.3
2017-09-28T10:23:56.320Z,41.49
2017-09-28T10:24:56.359Z,41.39
2017-09-28T10:25:56.380Z,41.58
2017-09-28T10:26:56.410Z,41.68
2017-09-28T10:27:56.490Z,41.97
2017-09-28T10:28:56.465Z,41.39
2017-09-28T10:29:56.497Z,41.1
2017-09-28T10:30:56.524Z,40.92
2017-09-28T10:31:56.554Z,40.83
2017-09-28T10:32:56.582Z,41.02
2017-09-28T10:33:56.614Z,40.34
2017-09-28T10:34:56.643Z,39.98
2017-09-28T10:35:56.673Z,39.86
2017-09-28T10:36:56.703Z,39.76
2017-09-28T10:37:56.733Z,39.67
2017-09-28T10:38:56.756Z,40.25
2017-09-28T10:39:56.809Z,39.76
2017-09-28T10:40:56.829Z,40.73
2017-09-28T10:41:56.843Z,41
2017-09-28T10:42:56.873Z,41.3
2017-09-28T10:43:56.904Z,41.27
2017-09-28T10:44:56.943Z,41.56
2017-09-28T10:45:57.218Z,41.47
2017-09-28T10:46:56.987Z,41.2
2017-09-28T10:47:57.018Z,41
2017-09-28T10:48:57.359Z,40.61
2017-09-28T10:49:57.089Z,40.33
2017-09-28T10:50:57.101Z,40.33
2017-09-28T10:51:57.130Z,40.91
2017-09-28T10:52:57.160Z,40.42
2017-09-28T10:53:57.185Z,40.13
2017-09-28T10:54:57.217Z,40.61
2017-09-28T10:55:57.243Z,40.15
2017-09-28T10:56:57.381Z,39.86
2017-09-28T10:57:57.309Z,39.57
2017-09-28T10:58:57.345Z,38.96
2017-09-28T10:59:57.357Z,38.87
2017-09-28T11:00:57.384Z,39.84
2017-09-28T11:01:57.737Z,39.84
2017-09-28T11:02:57.775Z,39.86
2017-09-28T11:03:57.474Z,39.94
2017-09-28T11:04:57.499Z,39.74
2017-09-28T11:05:57.527Z,39.94
2017-09-28T11:06:57.565Z,39.86
2017-09-28T11:07:57.593Z,39.76
2017-09-28T11:08:57.614Z,40.33
2017-09-28T11:09:57.640Z,40.42
2017-09-28T11:10:57.677Z,40.33
2017-09-28T11:11:57.700Z,40.23
2017-09-28T11:12:57.732Z,39.95
2017-09-28T11:13:57.757Z,39.78
2017-09-28T11:14:57.789Z,39.49
2017-09-28T11:15:57.814Z,39.88
2017-09-28T11:16:57.840Z,39.01
2017-09-28T11:17:57.870Z,39.49
2017-09-28T11:18:57.948Z,40.26
2017-09-28T11:19:57.927Z,40.34
2017-09-28T11:20:57.964Z,40.08
2017-09-28T11:21:58.005Z,39.49
2017-09-28T11:22:58.018Z,38.64
2017-09-28T11:23:58.045Z,38.44
2017-09-28T11:24:58.070Z,38.64
2017-09-28T11:25:58.106Z,38.56
2017-09-28T11:26:58.139Z,37.68
2017-09-28T11:27:58.170Z,37.98
2017-09-28T11:28:58.185Z,37.98
2017-09-28T11:29:58.233Z,37.59
2017-09-28T11:30:58.256Z,37.12
2017-09-28T11:31:58.305Z,36.73
2017-09-28T11:32:58.307Z,36.65
2017-09-28T11:33:58.326Z,36.94
2017-09-28T11:34:58.357Z,36.36
2017-09-28T11:35:58.384Z,36.63
2017-09-28T11:36:58.416Z,36.36
2017-09-28T11:37:58.500Z,36.34
2017-09-28T11:38:58.475Z,36.34
2017-09-28T11:39:58.512Z,36.24
2017-09-28T11:40:58.536Z,36.36
2017-09-28T11:41:58.573Z,36.07
2017-09-28T11:42:58.591Z,36.15
2017-09-28T11:43:58.652Z,36.36
2017-09-28T11:44:58.648Z,36.54
2017-09-28T11:45:58.680Z,36.55
2017-09-28T11:46:58.716Z,35.88
2017-09-28T11:47:58.739Z,36.26
2017-09-28T11:48:58.769Z,35.97
2017-09-28T11:49:58.798Z,35.78
2017-09-28T11:50:59.146Z,35.39
2017-09-28T11:51:58.858Z,35.6
2017-09-28T11:52:58.935Z,35.31
2017-09-28T11:53:58.912Z,35.31
2017-09-28T11:54:58.945Z,34.92
2017-09-28T11:55:58.973Z,34.45
2017-09-28T11:56:59.000Z,34.55
2017-09-28T11:57:59.030Z,34.33
2017-09-28T11:58:59.067Z,34.33
2017-09-28T11:59:59.091Z,34.63
2017-09-28T12:00:59.129Z,34.33
2017-09-28T12:01:59.152Z,34.35
2017-09-28T12:02:59.207Z,34.25
2017-09-28T12:03:59.210Z,33.77
2017-09-28T12:04:59.246Z,33.69
2017-09-28T12:05:59.269Z,33.96
2017-09-28T12:06:59.308Z,33.49
2017-09-28T12:07:59.382Z,32.81
2017-09-28T12:08:59.364Z,33.02
2017-09-28T12:09:59.617Z,32.92
2017-09-28T12:10:59.421Z,31.67
2017-09-28T12:11:59.462Z,31.77
2017-09-28T12:12:59.480Z,31.76
2017-09-28T12:13:59.510Z,32.63
2017-09-28T12:14:59.546Z,32.42
2017-09-28T12:15:59.575Z,31.85
2017-09-28T12:16:59.603Z,31.46
2017-09-28T12:17:59.632Z,31.19
2017-09-28T12:18:59.661Z,31.19
2017-09-28T12:19:59.694Z,31.3
2017-09-28T12:20:59.727Z,30.81
2017-09-28T12:21:59.761Z,30.62
2017-09-28T12:22:59.839Z,30.73
2017-09-28T12:23:59.817Z,30.54
2017-09-28T12:24:59.852Z,30.34
2017-09-28T12:25:59.880Z,29.86
2017-09-28T12:26:59.913Z,29.49
2017-09-28T12:27:59.939Z,29.38
2017-09-28T12:28:59.977Z,29.3
2017-09-28T12:30:00.002Z,29
2017-09-28T12:31:00.033Z,29.1
2017-09-28T12:32:00.065Z,28.33
2017-09-28T12:33:00.098Z,28.25
2017-09-28T12:34:00.132Z,28.25
2017-09-28T12:35:00.162Z,27.87
2017-09-28T12:36:00.193Z,27.59
2017-09-28T12:37:00.225Z,26.92
2017-09-28T12:38:00.255Z,26.34
2017-09-28T12:39:00.340Z,26.25
2017-09-28T12:40:00.648Z,26.44
2017-09-28T12:41:00.355Z,25.85
2017-09-28T12:42:00.393Z,26.25
2017-09-28T12:43:00.419Z,26.33
2017-09-28T12:44:00.766Z,26.51
2017-09-28T12:45:00.487Z,27.2
2017-09-28T12:46:00.517Z,26.51
2017-09-28T12:47:00.550Z,26.51
2017-09-28T12:48:00.590Z,26.22
2017-09-28T12:49:00.617Z,26.22
2017-09-28T12:50:00.652Z,26.6
2017-09-28T12:51:00.685Z,26.88
2017-09-28T12:52:00.720Z,26.89
2017-09-28T12:53:00.747Z,27.08
2017-09-28T12:54:00.829Z,27.37
2017-09-28T12:55:00.811Z,27.08
2017-09-28T12:56:00.847Z,27.17
2017-09-28T12:57:00.878Z,26.88